createdAt,value
2016-02-04T00:00:26.339Z,17.8
2016-02-04T00:01:19.766Z,17.74
2016-02-04T00:02:19.831Z,17.76
2016-02-04T00:03:19.849Z,17.82
2016-02-04T00:04:19.931Z,17.8
2016-02-04T00:05:19.948Z,17.74
2016-02-04T00:06:20.014Z,17.74
2016-02-04T00:07:20.094Z,17.78
2016-02-04T00:08:20.112Z,17.83
2016-02-04T00:09:20.209Z,17.79
2016-02-04T00:10:20.228Z,17.59
2016-02-04T00:11:20.277Z,17.49
2016-02-04T00:12:20.327Z,17.16
2016-02-04T00:13:27.271Z,16.97
2016-02-04T00:14:27.382Z,16.94
2016-02-04T00:15:20.495Z,16.96
2016-02-04T00:16:20.401Z,16.97
2016-02-04T00:17:20.606Z,17.05
2016-02-04T00:18:20.657Z,17.01
2016-02-04T00:19:20.721Z,17.11
2016-02-04T00:20:20.771Z,17.08
2016-02-04T00:21:20.851Z,17.19
2016-02-04T00:22:20.871Z,17.16
2016-02-04T00:23:25.751Z,17.2
2016-02-04T00:24:20.985Z,17.16
2016-02-04T00:25:21.051Z,17.26
2016-02-04T00:26:21.084Z,17.24
2016-02-04T00:27:21.150Z,17.31
2016-02-04T00:28:21.200Z,17.34
2016-02-04T00:29:28.392Z,17.3
2016-02-04T00:30:21.330Z,17.36
2016-02-04T00:31:21.348Z,17.38
2016-02-04T00:32:21.415Z,17.33
2016-02-04T00:33:21.464Z,17.39
2016-02-04T00:34:26.326Z,17.44
2016-02-04T00:35:28.876Z,17.41
2016-02-04T00:36:21.628Z,17.41
2016-02-04T00:37:21.693Z,17.39
2016-02-04T00:38:21.728Z,17.44
2016-02-04T00:39:21.776Z,17.39
2016-02-04T00:40:21.826Z,17.31
2016-02-04T00:41:26.647Z,17.36
2016-02-04T00:42:21.978Z,17.31
2016-02-04T00:43:21.981Z,17.31
2016-02-04T00:44:22.062Z,17.39
2016-02-04T00:45:22.112Z,17.34
2016-02-04T00:46:22.162Z,17.39
2016-02-04T00:47:22.227Z,17.38
2016-02-04T00:48:22.265Z,17.31
2016-02-04T00:49:27.439Z,17.3
2016-02-04T00:50:22.380Z,17.38
2016-02-04T00:51:22.445Z,17.27
2016-02-04T00:52:22.480Z,17.38
2016-02-04T00:53:22.529Z,17.31
2016-02-04T00:54:22.579Z,17.29
2016-02-04T00:55:30.004Z,17.3
2016-02-04T00:56:22.709Z,17.27
2016-02-04T00:57:22.744Z,17.26
2016-02-04T00:58:22.794Z,17.26
2016-02-04T00:59:22.859Z,17.3
2016-02-04T01:00:29.799Z,17.27
2016-02-04T01:01:22.959Z,17.29
2016-02-04T01:02:23.039Z,17.29
2016-02-04T01:03:23.074Z,17.23
2016-02-04T01:04:23.124Z,17.22
2016-02-04T01:05:23.189Z,17.23
2016-02-04T01:06:30.270Z,17.31
2016-02-04T01:07:23.272Z,17.23
2016-02-04T01:08:23.338Z,17.29
2016-02-04T01:09:30.467Z,17.2
2016-02-04T01:10:30.609Z,17.3
2016-02-04T01:11:23.487Z,17.33
2016-02-04T01:12:23.538Z,17.19
2016-02-04T01:13:23.603Z,17.24
2016-02-04T01:14:23.693Z,17.16
2016-02-04T01:15:28.371Z,17.23
2016-02-04T01:16:28.428Z,17.19
2016-02-04T01:17:23.777Z,17.2
2016-02-04T01:18:23.816Z,17.16
2016-02-04T01:19:23.860Z,17.14
2016-02-04T01:20:23.906Z,17.16
2016-02-04T01:21:23.967Z,17.19
2016-02-04T01:22:24.028Z,17.23
2016-02-04T01:23:24.059Z,17.29
2016-02-04T01:24:24.108Z,17.14
2016-02-04T01:25:24.171Z,17.2
2016-02-04T01:26:24.219Z,17.23
2016-02-04T01:27:24.283Z,17.2
2016-02-04T01:28:24.331Z,17.2
2016-02-04T01:29:24.365Z,17.15
2016-02-04T01:30:31.320Z,17.16
2016-02-04T01:31:31.415Z,17.15
2016-02-04T01:32:24.559Z,17.19
2016-02-04T01:33:24.592Z,17.16
2016-02-04T01:34:24.641Z,17.15
2016-02-04T01:35:24.691Z,17.15
2016-02-04T01:36:24.773Z,17.14
2016-02-04T01:37:24.792Z,17.24
2016-02-04T01:38:24.856Z,17.2
2016-02-04T01:39:24.921Z,17.11
2016-02-04T01:40:24.971Z,17.2
2016-02-04T01:41:25.021Z,17.09
2016-02-04T01:42:25.070Z,17.11
2016-02-04T01:43:25.119Z,17.14
2016-02-04T01:44:31.857Z,17.05
2016-02-04T01:45:31.918Z,17.15
2016-02-04T01:46:25.280Z,17.2
2016-02-04T01:47:25.361Z,17.11
2016-02-04T01:48:25.379Z,17.14
2016-02-04T01:49:25.429Z,17.12
2016-02-04T01:50:25.495Z,17.14
2016-02-04T01:51:25.560Z,17.09
2016-02-04T01:52:25.625Z,17.12
2016-02-04T01:53:25.503Z,17.12
2016-02-04T01:54:25.692Z,17.11
2016-02-04T01:55:25.759Z,17.11
2016-02-04T01:56:25.823Z,17.14
2016-02-04T01:57:25.889Z,17.11
2016-02-04T01:58:25.922Z,17.11
2016-02-04T01:59:32.676Z,17.12
2016-02-04T02:00:31.069Z,17.11
2016-02-04T02:01:26.087Z,17.09
2016-02-04T02:02:30.746Z,17.01
2016-02-04T02:03:33.295Z,17.06
2016-02-04T02:04:26.233Z,17.11
2016-02-04T02:05:26.298Z,17.02
2016-02-04T02:06:26.348Z,17.08
2016-02-04T02:07:26.397Z,17.09
2016-02-04T02:08:26.448Z,17.02
2016-02-04T02:09:30.985Z,17.01
2016-02-04T02:10:26.563Z,17.02
2016-02-04T02:11:26.644Z,17.05
2016-02-04T02:12:26.678Z,17.04
2016-02-04T02:13:33.683Z,17.08
2016-02-04T02:14:26.776Z,17.09
2016-02-04T02:15:26.811Z,17.06
2016-02-04T02:16:26.881Z,17.04
2016-02-04T02:17:26.947Z,17.05
2016-02-04T02:18:26.983Z,17.09
2016-02-04T02:19:27.032Z,17.06
2016-02-04T02:20:33.490Z,17.09
2016-02-04T02:21:27.162Z,17.11
2016-02-04T02:22:27.196Z,17.14
2016-02-04T02:23:27.261Z,17.09
2016-02-04T02:24:27.310Z,17.12
2016-02-04T02:25:27.360Z,17.11
2016-02-04T02:26:27.426Z,17.06
2016-02-04T02:27:27.459Z,17.11
2016-02-04T02:28:33.962Z,17.12
2016-02-04T02:29:27.574Z,17.11
2016-02-04T02:30:27.640Z,17.12
2016-02-04T02:31:27.705Z,17.09
2016-02-04T02:32:27.740Z,17.12
2016-02-04T02:33:27.788Z,17.11
2016-02-04T02:34:34.370Z,17.12
2016-02-04T02:35:27.887Z,17.12
2016-02-04T02:36:27.938Z,17.04
2016-02-04T02:37:28.003Z,17.02
2016-02-04T02:38:28.052Z,16.99
2016-02-04T02:39:34.540Z,16.97
2016-02-04T02:40:28.153Z,16.94
2016-02-04T02:41:28.219Z,16.97
2016-02-04T02:42:28.268Z,16.97
2016-02-04T02:43:28.333Z,16.96
2016-02-04T02:44:28.398Z,17.08
2016-02-04T02:45:28.416Z,17.02
2016-02-04T02:46:35.074Z,17.06
2016-02-04T02:47:28.533Z,17.05
2016-02-04T02:48:28.598Z,16.99
2016-02-04T02:49:28.695Z,17.01
2016-02-04T02:50:28.712Z,17.08
2016-02-04T02:51:28.747Z,16.94
2016-02-04T02:52:28.801Z,16.99
2016-02-04T02:53:28.834Z,17.02
2016-02-04T02:54:28.900Z,17.01
2016-02-04T02:55:35.652Z,16.96
2016-02-04T02:56:35.749Z,17.02
2016-02-04T02:57:29.064Z,17.06
2016-02-04T02:58:29.114Z,16.96
2016-02-04T02:59:29.165Z,17.04
2016-02-04T03:00:29.230Z,16.99
2016-02-04T03:01:33.701Z,16.93
2016-02-04T03:02:33.751Z,16.99
2016-02-04T03:03:29.378Z,16.89
2016-02-04T03:04:29.444Z,16.97
2016-02-04T03:05:29.509Z,16.91
2016-02-04T03:06:29.544Z,16.96
2016-02-04T03:07:29.592Z,16.97
2016-02-04T03:08:29.641Z,16.97
2016-02-04T03:09:36.754Z,16.97
2016-02-04T03:10:36.789Z,16.97
2016-02-04T03:11:29.822Z,16.93
2016-02-04T03:12:29.872Z,16.89
2016-02-04T03:13:29.905Z,16.9
2016-02-04T03:14:29.955Z,16.86
2016-02-04T03:15:34.271Z,16.84
2016-02-04T03:16:34.367Z,16.94
2016-02-04T03:17:30.136Z,16.91
2016-02-04T03:18:30.170Z,16.94
2016-02-04T03:19:30.222Z,16.99
2016-02-04T03:20:30.290Z,16.96
2016-02-04T03:21:34.683Z,16.93
2016-02-04T03:22:30.405Z,17.01
2016-02-04T03:23:30.438Z,17.04
2016-02-04T03:24:30.490Z,16.97
2016-02-04T03:25:30.555Z,17.04
2016-02-04T03:26:30.621Z,16.96
2016-02-04T03:27:37.029Z,16.94
2016-02-04T03:28:30.704Z,16.96
2016-02-04T03:29:30.769Z,17.02
2016-02-04T03:30:30.818Z,16.86
2016-02-04T03:31:30.869Z,16.93
2016-02-04T03:32:30.935Z,16.89
2016-02-04T03:33:30.969Z,16.93
2016-02-04T03:34:31.034Z,16.99
2016-02-04T03:35:35.301Z,16.87
2016-02-04T03:36:37.403Z,16.89
2016-02-04T03:37:31.168Z,16.93
2016-02-04T03:38:31.235Z,16.94
2016-02-04T03:39:31.284Z,16.87
2016-02-04T03:40:37.946Z,16.93
2016-02-04T03:41:31.415Z,17.01
2016-02-04T03:42:31.432Z,16.94
2016-02-04T03:43:38.235Z,16.86
2016-02-04T03:44:38.238Z,16.93
2016-02-04T03:45:31.613Z,16.93
2016-02-04T03:46:31.663Z,16.93
2016-02-04T03:47:31.704Z,17.02
2016-02-04T03:48:31.754Z,16.94
2016-02-04T03:49:36.229Z,16.9
2016-02-04T03:50:36.293Z,16.96
2016-02-04T03:51:31.951Z,16.93
2016-02-04T03:52:31.985Z,16.89
2016-02-04T03:53:32.019Z,16.9
2016-02-04T03:54:32.068Z,16.96
2016-02-04T03:55:32.133Z,16.86
2016-02-04T03:56:32.217Z,16.87
2016-02-04T03:57:39.362Z,16.87
2016-02-04T03:58:39.381Z,16.93
2016-02-04T03:59:32.334Z,16.94
2016-02-04T04:00:32.414Z,16.94
2016-02-04T04:01:32.448Z,16.86
2016-02-04T04:02:32.529Z,16.86
2016-02-04T04:03:36.987Z,16.9
2016-02-04T04:04:37.177Z,16.86
2016-02-04T04:05:32.664Z,16.86
2016-02-04T04:06:32.730Z,16.91
2016-02-04T04:07:32.795Z,16.84
2016-02-04T04:08:39.974Z,16.86
2016-02-04T04:09:40.101Z,16.86
2016-02-04T04:10:32.932Z,16.86
2016-02-04T04:11:32.983Z,16.9
2016-02-04T04:12:33.049Z,16.86
2016-02-04T04:13:33.129Z,16.93
2016-02-04T04:14:33.147Z,16.86
2016-02-04T04:15:33.196Z,16.83
2016-02-04T04:16:33.261Z,16.89
2016-02-04T04:17:33.308Z,16.86
2016-02-04T04:18:33.373Z,16.86
2016-02-04T04:19:33.422Z,16.87
2016-02-04T04:20:33.456Z,16.89
2016-02-04T04:21:33.522Z,16.86
2016-02-04T04:22:33.556Z,16.9
2016-02-04T04:23:40.592Z,16.83
2016-02-04T04:24:40.705Z,16.87
2016-02-04T04:25:33.723Z,16.87
2016-02-04T04:26:33.788Z,16.87
2016-02-04T04:27:33.823Z,16.89
2016-02-04T04:28:33.873Z,16.81
2016-02-04T04:29:38.734Z,16.86
2016-02-04T04:30:38.862Z,16.84
2016-02-04T04:31:34.068Z,16.86
2016-02-04T04:32:34.087Z,16.81
2016-02-04T04:33:34.152Z,16.83
2016-02-04T04:34:34.187Z,16.79
2016-02-04T04:35:34.269Z,16.81
2016-02-04T04:36:34.319Z,16.79
2016-02-04T04:37:34.368Z,16.81
2016-02-04T04:38:34.417Z,16.75
2016-02-04T04:39:41.545Z,16.75
2016-02-04T04:40:34.516Z,16.84
2016-02-04T04:41:34.583Z,16.78
2016-02-04T04:42:34.632Z,16.83
2016-02-04T04:43:34.681Z,16.79
2016-02-04T04:44:34.731Z,16.79
2016-02-04T04:45:34.797Z,16.86
2016-02-04T04:46:42.036Z,16.78
2016-02-04T04:47:34.884Z,16.79
2016-02-04T04:48:34.933Z,16.79
2016-02-04T04:49:34.999Z,16.79
2016-02-04T04:50:41.768Z,16.71
2016-02-04T04:51:35.129Z,16.78
2016-02-04T04:52:35.179Z,16.75
2016-02-04T04:53:35.213Z,16.81
2016-02-04T04:54:35.262Z,16.78
2016-02-04T04:55:35.328Z,16.72
2016-02-04T04:56:39.814Z,16.79
2016-02-04T04:57:42.270Z,16.75
2016-02-04T04:58:35.461Z,16.71
2016-02-04T04:59:35.526Z,16.78
2016-02-04T05:00:35.576Z,16.81
2016-02-04T05:01:35.642Z,16.78
2016-02-04T05:02:42.753Z,16.78
2016-02-04T05:03:35.753Z,16.81
2016-02-04T05:04:35.787Z,16.76
2016-02-04T05:05:35.837Z,16.76
2016-02-04T05:06:35.903Z,16.78
2016-02-04T05:07:35.986Z,16.78
2016-02-04T05:08:42.898Z,16.76
2016-02-04T05:09:36.054Z,16.75
2016-02-04T05:10:36.103Z,16.74
2016-02-04T05:11:36.169Z,16.78
2016-02-04T05:12:40.470Z,16.66
2016-02-04T05:13:42.895Z,16.72
2016-02-04T05:14:36.317Z,16.72
2016-02-04T05:15:36.383Z,16.75
2016-02-04T05:16:36.434Z,16.69
2016-02-04T05:17:36.483Z,16.71
2016-02-04T05:18:36.536Z,16.66
2016-02-04T05:19:40.945Z,16.76
2016-02-04T05:20:36.635Z,16.69
2016-02-04T05:21:36.700Z,16.72
2016-02-04T05:22:36.766Z,16.72
2016-02-04T05:23:36.800Z,16.75
2016-02-04T05:24:36.851Z,16.68
2016-02-04T05:25:36.901Z,16.75
2016-02-04T05:26:36.965Z,16.72
2016-02-04T05:27:37.031Z,16.71
2016-02-04T05:28:42.565Z,16.66
2016-02-04T05:29:42.692Z,16.66
2016-02-04T05:30:37.179Z,16.64
2016-02-04T05:31:37.229Z,16.68
2016-02-04T05:32:37.310Z,16.68
2016-02-04T05:33:37.345Z,16.75
2016-02-04T05:34:37.379Z,16.71
2016-02-04T05:35:37.444Z,16.68
2016-02-04T05:36:37.509Z,16.66
2016-02-04T05:37:37.559Z,16.71
2016-02-04T05:38:37.640Z,16.68
2016-02-04T05:39:37.631Z,16.71
2016-02-04T05:40:37.712Z,16.69
2016-02-04T05:41:37.777Z,16.71
2016-02-04T05:42:37.811Z,16.68
2016-02-04T05:43:43.611Z,16.72
2016-02-04T05:44:43.691Z,16.72
2016-02-04T05:45:37.960Z,16.68
2016-02-04T05:46:38.025Z,16.64
2016-02-04T05:47:37.934Z,16.69
2016-02-04T05:48:38.155Z,16.65
2016-02-04T05:49:41.846Z,16.72
2016-02-04T05:50:41.958Z,16.61
2016-02-04T05:51:38.308Z,16.65
2016-02-04T05:52:38.326Z,16.6
2016-02-04T05:53:38.391Z,16.65
2016-02-04T05:54:44.425Z,16.58
2016-02-04T05:55:44.475Z,16.68
2016-02-04T05:56:38.572Z,16.61
2016-02-04T05:57:38.606Z,16.58
2016-02-04T05:58:38.656Z,16.69
2016-02-04T05:59:38.706Z,16.69
2016-02-04T06:00:38.770Z,16.71
2016-02-04T06:01:38.836Z,16.69
2016-02-04T06:02:38.870Z,16.74
2016-02-04T06:03:38.938Z,16.71
2016-02-04T06:04:38.972Z,16.64
2016-02-04T06:05:39.022Z,16.69
2016-02-04T06:06:39.070Z,16.66
2016-02-04T06:07:39.136Z,16.69
2016-02-04T06:08:45.498Z,16.69
2016-02-04T06:09:45.517Z,16.66
2016-02-04T06:10:39.285Z,16.69
2016-02-04T06:11:39.337Z,16.58
2016-02-04T06:12:39.402Z,16.61
2016-02-04T06:13:39.453Z,16.57
2016-02-04T06:14:39.502Z,16.6
2016-02-04T06:15:39.553Z,16.54
2016-02-04T06:16:39.602Z,16.58
2016-02-04T06:17:39.669Z,16.64
2016-02-04T06:18:46.266Z,16.58
2016-02-04T06:19:39.769Z,16.56
2016-02-04T06:20:39.818Z,16.6
2016-02-04T06:21:39.867Z,16.56
2016-02-04T06:22:39.949Z,16.56
2016-02-04T06:23:39.999Z,16.54
2016-02-04T06:24:44.315Z,16.54
2016-02-04T06:25:45.115Z,16.57
2016-02-04T06:26:40.132Z,16.61
2016-02-04T06:27:40.182Z,16.65
2016-02-04T06:28:40.263Z,16.61
2016-02-04T06:29:40.282Z,16.61
2016-02-04T06:30:47.129Z,16.6
2016-02-04T06:31:40.394Z,16.58
2016-02-04T06:32:40.288Z,16.58
2016-02-04T06:33:40.524Z,16.65
2016-02-04T06:34:40.559Z,16.56
2016-02-04T06:35:40.609Z,16.57
2016-02-04T06:36:47.553Z,16.65
2016-02-04T06:37:40.740Z,16.61
2016-02-04T06:38:40.761Z,16.54
2016-02-04T06:39:40.811Z,16.6
2016-02-04T06:40:40.875Z,16.61
2016-02-04T06:41:40.925Z,16.61
2016-02-04T06:42:41.007Z,16.61
2016-02-04T06:43:41.025Z,16.58
2016-02-04T06:44:41.090Z,16.61
2016-02-04T06:45:44.939Z,16.6
2016-02-04T06:46:44.958Z,16.61
2016-02-04T06:47:41.270Z,16.6
2016-02-04T06:48:41.336Z,16.57
2016-02-04T06:49:41.338Z,16.58
2016-02-04T06:50:41.403Z,16.64
2016-02-04T06:51:41.469Z,16.57
2016-02-04T06:52:41.509Z,16.64
2016-02-04T06:53:41.558Z,16.57
2016-02-04T06:54:41.607Z,16.58
2016-02-04T06:55:41.673Z,16.61
2016-02-04T06:56:41.738Z,16.65
2016-02-04T06:57:41.755Z,16.56
2016-02-04T06:58:41.821Z,16.54
2016-02-04T06:59:46.230Z,16.56
2016-02-04T07:00:46.264Z,16.6
2016-02-04T07:01:42.002Z,16.56
2016-02-04T07:02:42.055Z,16.6
2016-02-04T07:03:41.932Z,16.58
2016-02-04T07:04:42.139Z,16.61
2016-02-04T07:05:42.188Z,16.61
2016-02-04T07:06:42.253Z,16.57
2016-02-04T07:07:42.318Z,16.51
2016-02-04T07:08:42.353Z,16.6
2016-02-04T07:09:48.870Z,16.56
2016-02-04T07:10:42.467Z,16.58
2016-02-04T07:11:42.517Z,16.54
2016-02-04T07:12:42.582Z,16.51
2016-02-04T07:13:42.616Z,16.54
2016-02-04T07:14:42.669Z,16.47
2016-02-04T07:15:42.719Z,16.47
2016-02-04T07:16:49.346Z,16.53
2016-02-04T07:17:42.849Z,16.47
2016-02-04T07:18:42.868Z,16.43
2016-02-04T07:19:42.949Z,16.51
2016-02-04T07:20:42.983Z,16.53
2016-02-04T07:21:47.011Z,16.49
2016-02-04T07:22:43.075Z,16.47
2016-02-04T07:23:43.140Z,16.47
2016-02-04T07:24:43.206Z,16.5
2016-02-04T07:25:43.286Z,16.41
2016-02-04T07:26:43.289Z,16.47
2016-02-04T07:27:49.748Z,16.47
2016-02-04T07:28:43.407Z,16.42
2016-02-04T07:29:43.472Z,16.47
2016-02-04T07:30:43.521Z,16.47
2016-02-04T07:31:43.572Z,16.43
2016-02-04T07:32:43.624Z,16.47
2016-02-04T07:33:43.689Z,16.46
2016-02-04T07:34:43.740Z,16.46
2016-02-04T07:35:50.462Z,16.42
2016-02-04T07:36:43.824Z,16.47
2016-02-04T07:37:43.889Z,16.43
2016-02-04T07:38:43.954Z,16.47
2016-02-04T07:39:43.990Z,16.42
2016-02-04T07:40:44.039Z,16.41
2016-02-04T07:41:44.108Z,16.42
2016-02-04T07:42:51.000Z,16.47
2016-02-04T07:43:44.221Z,16.49
2016-02-04T07:44:44.255Z,16.39
2016-02-04T07:45:44.321Z,16.41
2016-02-04T07:46:51.419Z,16.36
2016-02-04T07:47:44.422Z,16.41
2016-02-04T07:48:44.486Z,16.38
2016-02-04T07:49:44.520Z,16.39
2016-02-04T07:50:44.570Z,16.35
2016-02-04T07:51:44.637Z,16.42
2016-02-04T07:52:47.877Z,16.41
2016-02-04T07:53:49.958Z,16.42
2016-02-04T07:54:44.775Z,16.36
2016-02-04T07:55:44.856Z,16.43
2016-02-04T07:56:44.873Z,16.47
2016-02-04T07:57:44.939Z,16.43
2016-02-04T07:58:45.004Z,16.39
2016-02-04T07:59:45.042Z,16.47
2016-02-04T08:00:45.108Z,16.35
2016-02-04T08:01:45.158Z,16.43
2016-02-04T08:02:45.191Z,16.36
2016-02-04T08:03:45.272Z,16.43
2016-02-04T08:04:45.309Z,16.36
2016-02-04T08:05:45.359Z,16.42
2016-02-04T08:06:45.429Z,16.42
2016-02-04T08:07:45.463Z,16.43
2016-02-04T08:08:51.090Z,16.43
2016-02-04T08:09:51.109Z,16.38
2016-02-04T08:10:45.624Z,16.41
2016-02-04T08:11:45.691Z,16.46
2016-02-04T08:12:45.725Z,16.42
2016-02-04T08:13:45.775Z,16.41
2016-02-04T08:14:45.840Z,16.5
2016-02-04T08:15:45.890Z,16.29
2016-02-04T08:16:45.939Z,16.31
2016-02-04T08:17:46.004Z,16.26
2016-02-04T08:18:46.056Z,16.24
2016-02-04T08:19:46.091Z,16.1
2016-02-04T08:20:46.156Z,16.13
2016-02-04T08:21:46.190Z,16.09
2016-02-04T08:22:46.239Z,16.13
2016-02-04T08:23:52.214Z,16.13
2016-02-04T08:24:56.639Z,16.09
2016-02-04T08:25:52.420Z,16
2016-02-04T08:26:46.485Z,16.01
2016-02-04T08:27:46.503Z,15.92
2016-02-04T08:28:46.569Z,16
2016-02-04T08:29:46.649Z,15.98
2016-02-04T08:30:46.667Z,15.95
2016-02-04T08:31:46.732Z,15.95
2016-02-04T08:32:46.797Z,15.86
2016-02-04T08:33:46.832Z,15.95
2016-02-04T08:34:46.882Z,15.92
2016-02-04T08:35:46.962Z,15.83
2016-02-04T08:36:47.012Z,15.86
2016-02-04T08:37:47.046Z,15.9
2016-02-04T08:38:47.096Z,15.9
2016-02-04T08:39:48.052Z,15.86
2016-02-04T08:40:47.195Z,15.9
2016-02-04T08:41:47.260Z,15.86
2016-02-04T08:42:47.294Z,15.77
2016-02-04T08:43:47.365Z,15.76
2016-02-04T08:44:47.430Z,15.86
2016-02-04T08:45:47.512Z,15.83
2016-02-04T08:46:47.545Z,15.72
2016-02-04T08:47:47.564Z,15.8
2016-02-04T08:48:47.629Z,15.75
2016-02-04T08:49:47.678Z,15.79
2016-02-04T08:50:47.730Z,15.68
2016-02-04T08:51:47.775Z,15.77
2016-02-04T08:52:47.825Z,15.73
2016-02-04T08:53:47.890Z,15.65
2016-02-04T08:54:47.924Z,15.73
2016-02-04T08:55:48.410Z,15.72
2016-02-04T08:56:48.024Z,15.75
2016-02-04T08:57:48.104Z,15.73
2016-02-04T08:58:48.154Z,15.72
2016-02-04T08:59:48.187Z,15.64
2016-02-04T09:00:48.252Z,15.65
2016-02-04T09:01:48.302Z,15.62
2016-02-04T09:02:48.960Z,15.59
2016-02-04T09:03:48.418Z,15.61
2016-02-04T09:04:48.452Z,15.65
2016-02-04T09:05:49.110Z,15.64
2016-02-04T09:06:50.223Z,15.61
2016-02-04T09:07:50.038Z,15.64
2016-02-04T09:08:48.744Z,15.65
2016-02-04T09:09:49.480Z,15.68
2016-02-04T09:10:50.313Z,15.68
2016-02-04T09:11:48.284Z,15.72
2016-02-04T09:12:50.661Z,15.67
2016-02-04T09:13:51.136Z,15.67
2016-02-04T09:14:48.545Z,15.61
2016-02-04T09:15:49.033Z,15.67
2016-02-04T09:16:49.067Z,15.64
2016-02-04T09:17:49.132Z,15.64
2016-02-04T09:18:49.182Z,15.65
2016-02-04T09:19:49.083Z,15.64
2016-02-04T09:20:49.853Z,15.65
2016-02-04T09:21:50.761Z,15.65
2016-02-04T09:22:49.390Z,15.64
2016-02-04T09:23:49.457Z,15.65
2016-02-04T09:24:49.490Z,15.62
2016-02-04T09:25:49.556Z,15.62
2016-02-04T09:26:49.589Z,15.52
2016-02-04T09:27:50.373Z,15.55
2016-02-04T09:28:49.720Z,15.64
2016-02-04T09:29:49.753Z,15.65
2016-02-04T09:30:49.820Z,15.51
2016-02-04T09:31:49.870Z,15.61
2016-02-04T09:32:50.340Z,15.57
2016-02-04T09:33:49.969Z,15.64
2016-02-04T09:34:50.019Z,15.67
2016-02-04T09:35:50.084Z,15.59
2016-02-04T09:36:50.134Z,15.55
2016-02-04T09:37:50.167Z,15.59
2016-02-04T09:38:50.248Z,15.47
2016-02-04T09:39:50.329Z,15.57
2016-02-04T09:40:50.175Z,15.49
2016-02-04T09:41:50.459Z,15.51
2016-02-04T09:42:50.509Z,15.51
2016-02-04T09:43:50.495Z,15.52
2016-02-04T09:44:50.545Z,15.59
2016-02-04T09:45:50.595Z,15.49
2016-02-04T09:46:50.645Z,15.65
2016-02-04T09:47:50.710Z,15.59
2016-02-04T09:48:50.745Z,15.52
2016-02-04T09:49:50.794Z,15.52
2016-02-04T09:50:50.892Z,15.58
2016-02-04T09:51:50.925Z,15.62
2016-02-04T09:52:50.944Z,15.59
2016-02-04T09:53:51.009Z,15.61
2016-02-04T09:54:51.094Z,15.57
2016-02-04T09:55:51.111Z,15.54
2016-02-04T09:56:51.178Z,15.64
2016-02-04T09:57:51.212Z,15.62
2016-02-04T09:58:51.277Z,15.67
2016-02-04T09:59:51.326Z,15.58
2016-02-04T10:00:51.376Z,15.61
2016-02-04T10:01:51.426Z,15.68
2016-02-04T10:02:51.479Z,15.55
2016-02-04T10:03:51.528Z,15.58
2016-02-04T10:04:51.578Z,15.57
2016-02-04T10:05:51.642Z,15.64
2016-02-04T10:06:51.693Z,15.57
2016-02-04T10:07:51.743Z,15.57
2016-02-04T10:08:51.793Z,15.62
2016-02-04T10:09:51.842Z,15.55
2016-02-04T10:10:51.892Z,15.65
2016-02-04T10:11:51.956Z,15.58
2016-02-04T10:12:51.991Z,15.57
2016-02-04T10:13:52.040Z,15.58
2016-02-04T10:14:52.121Z,15.57
2016-02-04T10:15:52.561Z,15.51
2016-02-04T10:16:52.595Z,15.57
2016-02-04T10:17:52.254Z,15.59
2016-02-04T10:18:52.319Z,15.54
2016-02-04T10:19:52.558Z,15.57
2016-02-04T10:20:52.610Z,15.51
2016-02-04T10:21:52.441Z,15.51
2016-02-04T10:22:52.480Z,15.49
2016-02-04T10:23:52.520Z,15.52
2016-02-04T10:24:52.557Z,15.51
2016-02-04T10:25:52.586Z,15.51
2016-02-04T10:26:52.709Z,15.52
2016-02-04T10:27:52.692Z,15.44
2016-02-04T10:28:52.738Z,15.46
2016-02-04T10:29:52.846Z,15.55
2016-02-04T10:30:52.847Z,15.55
2016-02-04T10:31:52.723Z,15.51
2016-02-04T10:32:52.942Z,15.55
2016-02-04T10:33:53.006Z,15.51
2016-02-04T10:34:53.039Z,15.52
2016-02-04T10:35:53.104Z,15.51
2016-02-04T10:36:53.685Z,15.52
2016-02-04T10:37:53.218Z,15.54
2016-02-04T10:38:53.251Z,15.51
2016-02-04T10:39:53.300Z,15.51
2016-02-04T10:40:53.381Z,15.47
2016-02-04T10:41:53.399Z,15.51
2016-02-04T10:42:53.105Z,15.49
2016-02-04T10:43:53.512Z,15.55
2016-02-04T10:44:53.582Z,15.47
2016-02-04T10:45:53.616Z,15.46
2016-02-04T10:46:53.680Z,15.49
2016-02-04T10:47:53.715Z,15.52
2016-02-04T10:48:53.780Z,15.46
2016-02-04T10:49:53.830Z,15.49
2016-02-04T10:50:54.191Z,15.47
2016-02-04T10:51:54.602Z,15.55
2016-02-04T10:52:53.977Z,15.54
2016-02-04T10:53:54.026Z,15.55
2016-02-04T10:54:54.092Z,15.44
2016-02-04T10:55:54.126Z,15.47
2016-02-04T10:56:54.176Z,15.47
2016-02-04T10:57:54.616Z,15.47
2016-02-04T10:58:54.291Z,15.47
2016-02-04T10:59:54.388Z,15.46
2016-02-04T11:00:54.391Z,15.46
2016-02-04T11:01:54.471Z,15.47
2016-02-04T11:02:55.209Z,15.47
2016-02-04T11:03:54.384Z,15.44
2016-02-04T11:04:54.621Z,15.49
2016-02-04T11:05:54.654Z,15.49
2016-02-04T11:06:54.708Z,15.47
2016-02-04T11:07:54.758Z,15.4
2016-02-04T11:08:55.604Z,15.47
2016-02-04T11:09:54.857Z,15.43
2016-02-04T11:10:54.922Z,15.49
2016-02-04T11:11:54.956Z,15.49
2016-02-04T11:12:55.022Z,15.47
2016-02-04T11:13:55.072Z,15.52
2016-02-04T11:14:55.122Z,15.51
2016-02-04T11:15:55.187Z,15.49
2016-02-04T11:16:56.065Z,15.49
2016-02-04T11:17:55.301Z,15.51
2016-02-04T11:18:55.338Z,15.47
2016-02-04T11:19:55.402Z,15.54
2016-02-04T11:20:55.468Z,15.58
2016-02-04T11:21:55.563Z,15.46
2016-02-04T11:22:55.598Z,15.44
2016-02-04T11:23:55.615Z,15.47
2016-02-04T11:24:55.634Z,15.47
2016-02-04T11:25:55.698Z,15.47
2016-02-04T11:26:55.749Z,15.44
2016-02-04T11:27:55.799Z,15.52
2016-02-04T11:28:55.848Z,15.57
2016-02-04T11:29:55.945Z,15.52
2016-02-04T11:30:55.963Z,15.51
2016-02-04T11:31:56.018Z,15.52
2016-02-04T11:32:56.068Z,15.52
2016-02-04T11:33:55.961Z,15.57
2016-02-04T11:34:56.167Z,15.55
2016-02-04T11:35:56.201Z,15.58
2016-02-04T11:36:56.267Z,15.55
2016-02-04T11:37:56.362Z,15.54
2016-02-04T11:38:56.382Z,15.52
2016-02-04T11:39:56.431Z,15.49
2016-02-04T11:40:56.481Z,15.58
2016-02-04T11:41:56.531Z,15.47
2016-02-04T11:42:56.564Z,15.51
2016-02-04T11:43:56.650Z,15.57
2016-02-04T11:44:56.683Z,15.44
2016-02-04T11:45:56.749Z,15.59
2016-02-04T11:46:56.830Z,15.51
2016-02-04T11:47:56.879Z,15.55
2016-02-04T11:48:56.944Z,15.51
2016-02-04T11:49:56.993Z,15.52
2016-02-04T11:50:56.999Z,15.52
2016-02-04T11:51:57.080Z,15.52
2016-02-04T11:52:57.129Z,15.52
2016-02-04T11:53:57.148Z,15.55
2016-02-04T11:54:57.196Z,15.57
2016-02-04T11:55:57.280Z,15.52
2016-02-04T11:56:57.298Z,15.54
2016-02-04T11:57:57.395Z,15.47
2016-02-04T11:58:57.429Z,15.51
2016-02-04T11:59:57.478Z,15.59
2016-02-04T12:00:57.559Z,15.55
2016-02-04T12:01:57.578Z,15.52
2016-02-04T12:02:57.628Z,15.59
2016-02-04T12:03:57.677Z,15.57
2016-02-04T12:04:57.727Z,15.62
2016-02-04T12:05:57.777Z,15.62
2016-02-04T12:06:57.843Z,15.58
2016-02-04T12:07:57.876Z,15.57
2016-02-04T12:08:57.941Z,15.55
2016-02-04T12:09:58.006Z,15.59
2016-02-04T12:10:58.040Z,15.65
2016-02-04T12:11:58.106Z,15.57
2016-02-04T12:12:58.140Z,15.65
2016-02-04T12:13:58.205Z,15.65
2016-02-04T12:14:58.239Z,15.62
2016-02-04T12:15:58.305Z,15.57
2016-02-04T12:16:58.338Z,15.57
2016-02-04T12:17:58.420Z,15.58
2016-02-04T12:18:58.455Z,15.59
2016-02-04T12:19:58.504Z,15.58
2016-02-04T12:20:58.554Z,15.57
2016-02-04T12:21:58.634Z,15.57
2016-02-04T12:22:58.652Z,15.54
2016-02-04T12:23:58.735Z,15.58
2016-02-04T12:24:58.801Z,15.67
2016-02-04T12:25:58.819Z,15.61
2016-02-04T12:26:58.868Z,15.52
2016-02-04T12:27:58.918Z,15.58
2016-02-04T12:28:58.983Z,15.61
2016-02-04T12:29:59.033Z,15.58
2016-02-04T12:30:59.083Z,15.54
2016-02-04T12:31:59.148Z,15.67
2016-02-04T12:32:59.182Z,15.55
2016-02-04T12:33:59.232Z,15.58
2016-02-04T12:34:59.313Z,15.57
2016-02-04T12:35:59.349Z,15.58
2016-02-04T12:36:59.414Z,15.57
2016-02-04T12:37:59.433Z,15.57
2016-02-04T12:38:59.498Z,15.59
2016-02-04T12:39:59.547Z,15.57
2016-02-04T12:40:59.616Z,15.59
2016-02-04T12:41:59.651Z,15.59
2016-02-04T12:42:59.708Z,15.57
2016-02-04T12:43:59.758Z,15.55
2016-02-04T12:44:59.808Z,15.58
2016-02-04T12:45:59.858Z,15.57
2016-02-04T12:46:59.923Z,15.57
2016-02-04T12:47:59.973Z,15.58
2016-02-04T12:49:00.038Z,15.52
2016-02-04T12:50:00.119Z,15.52
2016-02-04T12:51:00.122Z,15.55
2016-02-04T12:52:00.187Z,15.57
2016-02-04T12:53:00.222Z,15.58
2016-02-04T12:54:00.303Z,15.57
2016-02-04T12:55:00.320Z,15.54